CSN8089 ZGGG-RJCC
Flight info
| Callsign | CSN8089 |
|---|---|
| Flight time | 3h 53m |
| Altitude | 35100 |
| Route | BOVMA9 BOVMA W41 OMDUP G471 EGEDA/K0885S1100 G471 PLT/K0883S1070 A599 LURMA/K0880S1130 A599 JTN G327 LAMEN/N0474F370 A593 SADLI Y590 BEDAR Y591 FUE V28 DGC Y14 SAMON Z17 MRE V13 TIKYU Y13 SIRAO Y139 NAVER |
| Aircraft | B738/M-SDE2E3FGHIRWXY/LB1 |
Departure
| Time | 2026-05-04 14:06 |
|---|---|
| Airport | Guangzhou Baiyun International Airport (ZGGG) |
Arrival
| Time | 2026-05-04 17:59 |
|---|---|
| Airport | New Chitose Airport (RJCC) |
| Time | Latitude | Longitude | Altitude | Speed | Heading |
|---|---|---|---|---|---|
| 2026-05-04 13:30 | 23.38935 | 113.29439 | 57 ft | 0 kts | 1° |
| 2026-05-04 13:47 | 23.38917 | 113.29438 | 50 ft | 4 kts | 1° |
| 2026-05-04 13:47 | 23.38890 | 113.29437 | 49 ft | 4 kts | 1° |
| 2026-05-04 13:48 | 23.38869 | 113.29437 | 52 ft | 4 kts | 358° |
| 2026-05-04 13:48 | 23.38843 | 113.29437 | 52 ft | 4 kts | 26° |
| 2026-05-04 13:48 | 23.38831 | 113.29421 | 54 ft | 4 kts | 65° |
| 2026-05-04 13:48 | 23.38820 | 113.29394 | 51 ft | 4 kts | 67° |
| 2026-05-04 13:49 | 23.38812 | 113.29373 | 51 ft | 4 kts | 66° |
| 2026-05-04 13:49 | 23.38819 | 113.29390 | 52 ft | 4 kts | 63° |
| 2026-05-04 13:49 | 23.38838 | 113.29398 | 54 ft | 4 kts | 357° |
| 2026-05-04 13:49 | 23.38862 | 113.29388 | 51 ft | 4 kts | 330° |
| 2026-05-04 13:50 | 23.38867 | 113.29366 | 54 ft | 2 kts | 270° |
| 2026-05-04 13:50 | 23.38867 | 113.29344 | 57 ft | 0 kts | 271° |
| 2026-05-04 13:53 | 23.38867 | 113.29343 | 57 ft | 1 kts | 271° |
| 2026-05-04 13:53 | 23.38868 | 113.29321 | 57 ft | 5 kts | 271° |
| 2026-05-04 13:53 | 23.38868 | 113.29263 | 57 ft | 10 kts | 270° |
| 2026-05-04 13:54 | 23.38870 | 113.29103 | 57 ft | 9 kts | 271° |
| 2026-05-04 13:54 | 23.38850 | 113.29043 | 53 ft | 9 kts | 214° |
| 2026-05-04 13:54 | 23.38713 | 113.29002 | 53 ft | 14 kts | 194° |
| 2026-05-04 13:55 | 23.38604 | 113.28972 | 51 ft | 18 kts | 194° |
| 2026-05-04 13:55 | 23.38366 | 113.28908 | 53 ft | 17 kts | 194° |
| 2026-05-04 13:55 | 23.38254 | 113.28878 | 52 ft | 16 kts | 194° |
| 2026-05-04 13:56 | 23.38150 | 113.28850 | 53 ft | 11 kts | 194° |
| 2026-05-04 13:56 | 23.38084 | 113.28858 | 57 ft | 10 kts | 131° |
| 2026-05-04 13:56 | 23.38045 | 113.29002 | 57 ft | 11 kts | 104° |
| 2026-05-04 13:57 | 23.38023 | 113.29097 | 54 ft | 15 kts | 104° |
| 2026-05-04 13:57 | 23.37996 | 113.29217 | 52 ft | 18 kts | 104° |
| 2026-05-04 13:58 | 23.37888 | 113.29688 | 55 ft | 23 kts | 104° |
| 2026-05-04 13:58 | 23.37815 | 113.30010 | 53 ft | 19 kts | 104° |
| 2026-05-04 13:58 | 23.37797 | 113.30087 | 53 ft | 5 kts | 104° |
| 2026-05-04 13:59 | 23.37797 | 113.30090 | 54 ft | 0 kts | 104° |
| 2026-05-04 14:00 | 23.37795 | 113.30095 | 52 ft | 2 kts | 104° |
| 2026-05-04 14:01 | 23.37788 | 113.30126 | 57 ft | 7 kts | 104° |
| 2026-05-04 14:01 | 23.37762 | 113.30181 | 55 ft | 9 kts | 133° |
| 2026-05-04 14:01 | 23.37657 | 113.30254 | 57 ft | 9 kts | 139° |
| 2026-05-04 14:02 | 23.37633 | 113.30314 | 54 ft | 9 kts | 104° |
| 2026-05-04 14:02 | 23.37618 | 113.30378 | 54 ft | 9 kts | 104° |
| 2026-05-04 14:02 | 23.37610 | 113.30409 | 53 ft | 0 kts | 104° |
| 2026-05-04 14:04 | 23.37606 | 113.30429 | 57 ft | 5 kts | 104° |
| 2026-05-04 14:04 | 23.37594 | 113.30480 | 54 ft | 8 kts | 104° |
| 2026-05-04 14:04 | 23.37586 | 113.30534 | 57 ft | 6 kts | 72° |
| 2026-05-04 14:05 | 23.37602 | 113.30542 | 53 ft | 5 kts | 16° |
| 2026-05-04 14:05 | 23.37841 | 113.30607 | 52 ft | 70 kts | 14° |
| 2026-05-04 14:05 | 23.38546 | 113.30797 | 55 ft | 134 kts | 14° |
| 2026-05-04 14:06 | 23.39220 | 113.30982 | 57 ft | 168 kts | 15° |
| 2026-05-04 14:06 | 23.40424 | 113.31333 | 528 ft | 181 kts | 16° |
| 2026-05-04 14:06 | 23.41631 | 113.31692 | 1322 ft | 182 kts | 16° |
| 2026-05-04 14:06 | 23.42865 | 113.32047 | 2026 ft | 184 kts | 16° |
| 2026-05-04 14:07 | 23.44144 | 113.32404 | 2536 ft | 196 kts | 16° |
| 2026-05-04 14:07 | 23.45939 | 113.32921 | 3305 ft | 207 kts | 17° |
| 2026-05-04 14:07 | 23.46909 | 113.33210 | 3449 ft | 223 kts | 16° |
| 2026-05-04 14:07 | 23.48465 | 113.33670 | 3714 ft | 238 kts | 16° |
| 2026-05-04 14:08 | 23.50091 | 113.34152 | 4187 ft | 243 kts | 16° |
| 2026-05-04 14:08 | 23.51706 | 113.34642 | 4850 ft | 243 kts | 15° |
| 2026-05-04 14:08 | 23.53360 | 113.35149 | 5301 ft | 250 kts | 15° |
| 2026-05-04 14:08 | 23.55081 | 113.35670 | 5763 ft | 262 kts | 14° |
| 2026-05-04 14:09 | 23.58628 | 113.36442 | 7096 ft | 265 kts | 6° |
| 2026-05-04 14:09 | 23.60437 | 113.36762 | 7807 ft | 262 kts | 6° |
| 2026-05-04 14:10 | 23.63545 | 113.38969 | 8548 ft | 300 kts | 63° |
| 2026-05-04 14:10 | 23.64162 | 113.41173 | 9069 ft | 305 kts | 78° |
| 2026-05-04 14:10 | 23.64578 | 113.43481 | 9548 ft | 316 kts | 80° |
| 2026-05-04 14:10 | 23.64994 | 113.45850 | 10112 ft | 321 kts | 79° |
| 2026-05-04 14:11 | 23.65450 | 113.48290 | 10415 ft | 337 kts | 78° |
| 2026-05-04 14:11 | 23.66520 | 113.53566 | 10706 ft | 375 kts | 77° |
| 2026-05-04 14:11 | 23.67117 | 113.56401 | 10858 ft | 392 kts | 77° |
| 2026-05-04 14:12 | 23.67741 | 113.59361 | 11025 ft | 406 kts | 77° |
| 2026-05-04 14:12 | 23.68379 | 113.62379 | 11384 ft | 414 kts | 77° |
| 2026-05-04 14:12 | 23.69673 | 113.68530 | 12412 ft | 419 kts | 78° |
| 2026-05-04 14:13 | 23.70323 | 113.71627 | 12929 ft | 422 kts | 77° |
| 2026-05-04 14:13 | 23.70984 | 113.74777 | 13357 ft | 428 kts | 77° |
| 2026-05-04 14:13 | 23.71649 | 113.77952 | 13892 ft | 431 kts | 77° |
| 2026-05-04 14:13 | 23.72325 | 113.81179 | 14167 ft | 440 kts | 77° |
| 2026-05-04 14:14 | 23.73007 | 113.84443 | 14697 ft | 440 kts | 77° |
| 2026-05-04 14:14 | 23.74377 | 113.91011 | 15572 ft | 449 kts | 77° |
| 2026-05-04 14:14 | 23.75063 | 113.94303 | 15979 ft | 451 kts | 76° |
| 2026-05-04 14:15 | 23.76470 | 114.01064 | 16814 ft | 458 kts | 77° |
| 2026-05-04 14:15 | 23.77877 | 114.07846 | 17667 ft | 460 kts | 76° |
| 2026-05-04 14:16 | 23.79301 | 114.14724 | 18338 ft | 470 kts | 76° |
| 2026-05-04 14:16 | 23.80033 | 114.18268 | 18631 ft | 474 kts | 76° |
| 2026-05-04 14:17 | 23.81530 | 114.25253 | 19358 ft | 476 kts | 70° |
| 2026-05-04 14:17 | 23.83017 | 114.28459 | 19635 ft | 474 kts | 51° |
| 2026-05-04 14:17 | 23.87828 | 114.33241 | 20376 ft | 468 kts | 32° |
| 2026-05-04 14:18 | 23.90471 | 114.35344 | 20679 ft | 471 kts | 31° |
| 2026-05-04 14:18 | 23.95803 | 114.39604 | 21230 ft | 479 kts | 32° |
| 2026-05-04 14:19 | 24.01193 | 114.43922 | 21907 ft | 481 kts | 32° |
| 2026-05-04 14:19 | 24.03889 | 114.46106 | 22145 ft | 484 kts | 32° |
| 2026-05-04 14:19 | 24.06601 | 114.48318 | 22425 ft | 487 kts | 33° |
| 2026-05-04 14:19 | 24.09317 | 114.50544 | 22709 ft | 489 kts | 33° |
| 2026-05-04 14:20 | 24.12083 | 114.52815 | 22969 ft | 492 kts | 33° |
| 2026-05-04 14:20 | 24.14827 | 114.55065 | 23182 ft | 494 kts | 32° |
| 2026-05-04 14:20 | 24.17543 | 114.57291 | 23465 ft | 496 kts | 32° |
| 2026-05-04 14:21 | 24.23114 | 114.61880 | 23954 ft | 498 kts | 32° |
| 2026-05-04 14:21 | 24.25848 | 114.64133 | 24126 ft | 501 kts | 32° |
| 2026-05-04 14:21 | 24.28688 | 114.66470 | 24257 ft | 505 kts | 32° |
| 2026-05-04 14:21 | 24.31503 | 114.68787 | 24450 ft | 507 kts | 32° |
| 2026-05-04 14:22 | 24.34287 | 114.71081 | 24684 ft | 507 kts | 32° |
| 2026-05-04 14:22 | 24.37108 | 114.73408 | 24849 ft | 510 kts | 32° |
| 2026-05-04 14:22 | 24.40032 | 114.75715 | 25015 ft | 509 kts | 27° |
| 2026-05-04 14:22 | 24.43075 | 114.77573 | 25181 ft | 507 kts | 21° |
| 2026-05-04 14:23 | 24.49447 | 114.81032 | 25512 ft | 509 kts | 20° |
| 2026-05-04 14:23 | 24.52581 | 114.82726 | 25782 ft | 509 kts | 20° |
| 2026-05-04 14:23 | 24.55748 | 114.84467 | 25985 ft | 511 kts | 20° |
| 2026-05-04 14:24 | 24.58930 | 114.86238 | 26134 ft | 513 kts | 20° |
| 2026-05-04 14:24 | 24.62111 | 114.88026 | 26297 ft | 515 kts | 21° |
| 2026-05-04 14:24 | 24.65344 | 114.89855 | 26470 ft | 517 kts | 21° |
| 2026-05-04 14:24 | 24.68498 | 114.91647 | 26715 ft | 517 kts | 21° |
| 2026-05-04 14:25 | 24.71728 | 114.93484 | 26996 ft | 516 kts | 21° |
| 2026-05-04 14:25 | 24.78072 | 114.97091 | 27530 ft | 516 kts | 21° |
| 2026-05-04 14:25 | 24.81251 | 114.98897 | 27772 ft | 516 kts | 21° |
| 2026-05-04 14:26 | 24.84488 | 115.00736 | 28048 ft | 516 kts | 20° |
| 2026-05-04 14:26 | 24.87634 | 115.02524 | 28294 ft | 516 kts | 20° |
| 2026-05-04 14:26 | 24.90824 | 115.04337 | 28512 ft | 517 kts | 20° |
| 2026-05-04 14:26 | 24.94022 | 115.06155 | 28801 ft | 518 kts | 20° |
| 2026-05-04 14:27 | 24.97221 | 115.07976 | 29105 ft | 517 kts | 20° |
| 2026-05-04 14:27 | 25.00423 | 115.09801 | 29418 ft | 517 kts | 20° |
| 2026-05-04 14:27 | 25.03615 | 115.11621 | 29702 ft | 517 kts | 20° |
| 2026-05-04 14:27 | 25.06811 | 115.13445 | 29982 ft | 517 kts | 20° |
| 2026-05-04 14:28 | 25.10011 | 115.15271 | 30257 ft | 517 kts | 20° |
| 2026-05-04 14:28 | 25.13209 | 115.17097 | 30535 ft | 517 kts | 20° |
| 2026-05-04 14:28 | 25.16395 | 115.18920 | 30833 ft | 516 kts | 20° |
| 2026-05-04 14:28 | 25.19623 | 115.20766 | 31137 ft | 516 kts | 20° |
| 2026-05-04 14:29 | 25.25953 | 115.24386 | 31650 ft | 516 kts | 20° |
| 2026-05-04 14:29 | 25.32315 | 115.28031 | 32233 ft | 514 kts | 20° |
| 2026-05-04 14:30 | 25.35486 | 115.29850 | 32512 ft | 513 kts | 20° |
| 2026-05-04 14:30 | 25.38701 | 115.31695 | 32727 ft | 514 kts | 19° |
| 2026-05-04 14:30 | 25.45013 | 115.35317 | 33130 ft | 517 kts | 20° |
| 2026-05-04 14:31 | 25.48205 | 115.37153 | 33487 ft | 514 kts | 19° |
| 2026-05-04 14:31 | 25.54513 | 115.40788 | 34148 ft | 510 kts | 19° |
| 2026-05-04 14:32 | 25.60835 | 115.44426 | 34465 ft | 512 kts | 19° |
| 2026-05-04 14:32 | 25.63989 | 115.46245 | 34734 ft | 510 kts | 19° |
| 2026-05-04 14:32 | 25.67119 | 115.48052 | 35029 ft | 507 kts | 19° |
| 2026-05-04 14:32 | 25.70243 | 115.49857 | 35198 ft | 507 kts | 19° |
| 2026-05-04 14:33 | 25.73389 | 115.51671 | 35191 ft | 511 kts | 19° |
| 2026-05-04 14:33 | 25.79738 | 115.55334 | 35202 ft | 517 kts | 19° |
| 2026-05-04 14:34 | 25.86128 | 115.59031 | 35192 ft | 518 kts | 19° |
| 2026-05-04 14:34 | 25.92522 | 115.62736 | 35180 ft | 519 kts | 19° |
| 2026-05-04 14:35 | 25.98921 | 115.66455 | 35178 ft | 519 kts | 19° |
| 2026-05-04 14:35 | 26.05328 | 115.70179 | 35182 ft | 520 kts | 19° |
| 2026-05-04 14:36 | 26.11740 | 115.73910 | 35183 ft | 520 kts | 19° |
| 2026-05-04 14:36 | 26.18143 | 115.77639 | 35184 ft | 519 kts | 19° |
| 2026-05-04 14:37 | 26.24540 | 115.81370 | 35187 ft | 519 kts | 19° |
| 2026-05-04 14:37 | 26.30932 | 115.85104 | 35184 ft | 519 kts | 19° |
| 2026-05-04 14:38 | 26.37365 | 115.88863 | 35184 ft | 518 kts | 19° |
| 2026-05-04 14:38 | 26.43701 | 115.92572 | 35198 ft | 518 kts | 19° |
| 2026-05-04 14:39 | 26.50069 | 115.96385 | 35183 ft | 519 kts | 19° |
| 2026-05-04 14:39 | 26.56468 | 116.00089 | 35196 ft | 518 kts | 18° |
| 2026-05-04 14:40 | 26.66090 | 116.05708 | 35189 ft | 518 kts | 19° |
| 2026-05-04 14:40 | 26.72417 | 116.09437 | 35229 ft | 518 kts | 19° |
| 2026-05-04 14:41 | 26.78842 | 116.13226 | 35208 ft | 518 kts | 19° |
| 2026-05-04 14:42 | 26.91507 | 116.20833 | 35191 ft | 521 kts | 24° |
| 2026-05-04 14:42 | 26.94390 | 116.23362 | 35188 ft | 536 kts | 39° |
| 2026-05-04 14:42 | 26.96895 | 116.26482 | 35219 ft | 540 kts | 43° |
| 2026-05-04 14:43 | 27.01846 | 116.32823 | 35207 ft | 540 kts | 42° |
| 2026-05-04 14:43 | 27.06918 | 116.39032 | 35196 ft | 539 kts | 40° |
| 2026-05-04 14:44 | 27.12041 | 116.45195 | 35195 ft | 540 kts | 40° |
| 2026-05-04 14:44 | 27.17157 | 116.51376 | 35230 ft | 541 kts | 41° |
| 2026-05-04 14:45 | 27.22284 | 116.57576 | 35193 ft | 541 kts | 40° |
| 2026-05-04 14:45 | 27.27507 | 116.63663 | 35199 ft | 541 kts | 39° |
| 2026-05-04 14:46 | 27.32758 | 116.69725 | 35191 ft | 542 kts | 39° |
| 2026-05-04 14:46 | 27.37996 | 116.75819 | 35232 ft | 543 kts | 39° |
| 2026-05-04 14:47 | 27.42352 | 116.80913 | 35205 ft | 543 kts | 39° |
| 2026-05-04 14:47 | 27.47588 | 116.87045 | 35179 ft | 543 kts | 39° |
| 2026-05-04 14:48 | 27.52822 | 116.93175 | 35196 ft | 543 kts | 39° |
| 2026-05-04 14:48 | 27.58093 | 116.99277 | 35208 ft | 542 kts | 39° |
| 2026-05-04 14:49 | 27.63378 | 117.05370 | 35208 ft | 544 kts | 39° |
| 2026-05-04 14:49 | 27.68657 | 117.11476 | 35203 ft | 543 kts | 39° |
| 2026-05-04 14:50 | 27.73919 | 117.17583 | 35176 ft | 543 kts | 39° |
| 2026-05-04 14:50 | 27.79174 | 117.23691 | 35196 ft | 541 kts | 39° |
| 2026-05-04 14:51 | 27.84420 | 117.29793 | 35231 ft | 542 kts | 39° |
| 2026-05-04 14:51 | 27.89673 | 117.35840 | 35216 ft | 538 kts | 39° |
| 2026-05-04 14:52 | 27.94868 | 117.41936 | 35197 ft | 536 kts | 39° |
| 2026-05-04 14:52 | 28.00041 | 117.48042 | 35189 ft | 539 kts | 39° |
| 2026-05-04 14:53 | 28.05259 | 117.54147 | 35195 ft | 541 kts | 39° |
| 2026-05-04 14:53 | 28.10503 | 117.60281 | 35209 ft | 544 kts | 39° |
| 2026-05-04 14:54 | 28.15763 | 117.66444 | 35208 ft | 547 kts | 39° |
| 2026-05-04 14:54 | 28.21053 | 117.72656 | 35206 ft | 549 kts | 39° |
| 2026-05-04 14:55 | 28.26361 | 117.78900 | 35207 ft | 550 kts | 39° |
| 2026-05-04 14:55 | 28.31677 | 117.85163 | 35198 ft | 550 kts | 40° |
| 2026-05-04 14:56 | 28.36982 | 117.91424 | 35191 ft | 550 kts | 40° |
| 2026-05-04 14:56 | 28.42271 | 117.97674 | 35191 ft | 548 kts | 40° |
| 2026-05-04 14:57 | 28.47474 | 118.04003 | 35202 ft | 548 kts | 41° |
| 2026-05-04 14:57 | 28.52628 | 118.10390 | 35183 ft | 547 kts | 41° |
| 2026-05-04 14:58 | 28.57758 | 118.16743 | 35203 ft | 545 kts | 41° |
| 2026-05-04 14:58 | 28.62895 | 118.23086 | 35198 ft | 544 kts | 41° |
| 2026-05-04 14:59 | 28.68028 | 118.29425 | 35202 ft | 544 kts | 41° |
| 2026-05-04 15:00 | 28.75717 | 118.38941 | 35192 ft | 544 kts | 41° |
| 2026-05-04 15:00 | 28.80839 | 118.45294 | 35203 ft | 545 kts | 41° |
| 2026-05-04 15:01 | 28.88541 | 118.54867 | 35213 ft | 547 kts | 41° |
| 2026-05-04 15:01 | 28.93686 | 118.61275 | 35205 ft | 548 kts | 41° |
| 2026-05-04 15:02 | 28.98843 | 118.67709 | 35188 ft | 549 kts | 41° |
| 2026-05-04 15:02 | 29.03994 | 118.74145 | 35200 ft | 549 kts | 41° |
| 2026-05-04 15:03 | 29.09142 | 118.80579 | 35210 ft | 548 kts | 41° |
| 2026-05-04 15:03 | 29.14280 | 118.87015 | 35193 ft | 549 kts | 41° |
| 2026-05-04 15:04 | 29.19420 | 118.93487 | 35206 ft | 549 kts | 41° |
| 2026-05-04 15:04 | 29.24560 | 118.99949 | 35245 ft | 549 kts | 41° |
| 2026-05-04 15:05 | 29.29702 | 119.06439 | 35200 ft | 550 kts | 41° |
| 2026-05-04 15:05 | 29.34825 | 119.12935 | 35188 ft | 550 kts | 41° |
| 2026-05-04 15:06 | 29.39952 | 119.19424 | 35210 ft | 548 kts | 41° |
| 2026-05-04 15:07 | 29.47639 | 119.29144 | 35214 ft | 549 kts | 41° |
| 2026-05-04 15:07 | 29.52761 | 119.35642 | 35215 ft | 550 kts | 41° |
| 2026-05-04 15:08 | 29.57891 | 119.42182 | 35208 ft | 550 kts | 41° |
| 2026-05-04 15:08 | 29.62996 | 119.48734 | 35256 ft | 550 kts | 42° |
| 2026-05-04 15:09 | 29.68076 | 119.55304 | 35185 ft | 551 kts | 42° |
| 2026-05-04 15:09 | 29.73148 | 119.61901 | 35198 ft | 549 kts | 42° |
| 2026-05-04 15:10 | 29.78684 | 119.67744 | 35200 ft | 530 kts | 25° |
| 2026-05-04 15:10 | 29.81798 | 119.69918 | 35215 ft | 522 kts | 20° |
| 2026-05-04 15:11 | 29.91266 | 119.76072 | 35213 ft | 520 kts | 20° |
| 2026-05-04 15:11 | 29.97533 | 119.80253 | 35189 ft | 521 kts | 21° |
| 2026-05-04 15:12 | 30.03792 | 119.84484 | 35189 ft | 521 kts | 21° |
| 2026-05-04 15:12 | 30.10039 | 119.88713 | 35198 ft | 521 kts | 21° |
| 2026-05-04 15:13 | 30.16293 | 119.92948 | 35199 ft | 521 kts | 21° |
| 2026-05-04 15:13 | 30.22550 | 119.97193 | 35189 ft | 521 kts | 21° |
| 2026-05-04 15:14 | 30.28797 | 120.01424 | 35189 ft | 520 kts | 21° |
| 2026-05-04 15:14 | 30.35049 | 120.05671 | 35189 ft | 520 kts | 21° |
| 2026-05-04 15:15 | 30.41291 | 120.09920 | 35184 ft | 520 kts | 21° |
| 2026-05-04 15:15 | 30.47533 | 120.14174 | 35210 ft | 520 kts | 21° |
| 2026-05-04 15:16 | 30.56906 | 120.20558 | 35185 ft | 521 kts | 21° |
| 2026-05-04 15:17 | 30.66283 | 120.26954 | 35176 ft | 521 kts | 21° |
| 2026-05-04 15:17 | 30.75603 | 120.33329 | 35185 ft | 520 kts | 22° |
| 2026-05-04 15:18 | 30.81875 | 120.37627 | 35175 ft | 519 kts | 22° |
| 2026-05-04 15:19 | 30.90095 | 120.45963 | 35180 ft | 545 kts | 56° |
| 2026-05-04 15:19 | 30.91667 | 120.49983 | 35176 ft | 547 kts | 72° |
| 2026-05-04 15:19 | 30.93615 | 120.58539 | 35182 ft | 548 kts | 75° |
| 2026-05-04 15:20 | 30.95587 | 120.67107 | 35180 ft | 548 kts | 73° |
| 2026-05-04 15:20 | 30.97685 | 120.75669 | 35182 ft | 549 kts | 72° |
| 2026-05-04 15:21 | 30.99789 | 120.84216 | 35186 ft | 550 kts | 72° |
| 2026-05-04 15:22 | 31.02899 | 120.96914 | 35152 ft | 542 kts | 73° |
| 2026-05-04 15:22 | 31.06000 | 121.09642 | 35197 ft | 546 kts | 73° |
| 2026-05-04 15:23 | 31.08091 | 121.18152 | 35203 ft | 549 kts | 72° |
| 2026-05-04 15:23 | 31.10341 | 121.26677 | 35186 ft | 551 kts | 71° |
| 2026-05-04 15:24 | 31.11718 | 121.35046 | 35260 ft | 551 kts | 88° |
| 2026-05-04 15:24 | 31.11190 | 121.43902 | 35214 ft | 544 kts | 103° |
| 2026-05-04 15:25 | 31.09926 | 121.52559 | 35181 ft | 538 kts | 103° |
| 2026-05-04 15:26 | 31.08298 | 121.64146 | 35201 ft | 539 kts | 102° |
| 2026-05-04 15:26 | 31.06592 | 121.76855 | 35201 ft | 541 kts | 102° |
| 2026-05-04 15:27 | 31.04834 | 121.89868 | 35215 ft | 543 kts | 103° |
| 2026-05-04 15:28 | 31.03047 | 122.02933 | 35216 ft | 544 kts | 103° |
| 2026-05-04 15:29 | 31.01254 | 122.15955 | 35215 ft | 545 kts | 103° |
| 2026-05-04 15:30 | 30.99878 | 122.33315 | 35234 ft | 552 kts | 90° |
| 2026-05-04 15:30 | 31.00024 | 122.46740 | 35235 ft | 552 kts | 92° |
| 2026-05-04 15:31 | 31.00001 | 122.60193 | 35228 ft | 554 kts | 92° |
| 2026-05-04 15:32 | 31.00012 | 122.82626 | 35235 ft | 553 kts | 92° |
| 2026-05-04 15:34 | 31.02740 | 123.04442 | 35247 ft | 546 kts | 59° |
| 2026-05-04 15:34 | 31.09211 | 123.15210 | 35289 ft | 540 kts | 49° |
| 2026-05-04 15:35 | 31.15871 | 123.25885 | 35250 ft | 543 kts | 50° |
| 2026-05-04 15:36 | 31.22447 | 123.36692 | 35245 ft | 545 kts | 50° |
| 2026-05-04 15:36 | 31.26867 | 123.43966 | 35256 ft | 546 kts | 50° |
| 2026-05-04 15:37 | 31.31236 | 123.51159 | 35249 ft | 546 kts | 50° |
| 2026-05-04 15:37 | 31.35667 | 123.58445 | 35249 ft | 545 kts | 50° |
| 2026-05-04 15:38 | 31.40085 | 123.65654 | 35254 ft | 545 kts | 50° |
| 2026-05-04 15:38 | 31.44494 | 123.72855 | 35252 ft | 544 kts | 50° |
| 2026-05-04 15:39 | 31.48892 | 123.80066 | 35258 ft | 543 kts | 51° |
| 2026-05-04 15:40 | 31.55461 | 123.90868 | 35198 ft | 543 kts | 51° |
| 2026-05-04 15:40 | 31.59715 | 123.98114 | 35138 ft | 545 kts | 57° |
| 2026-05-04 15:41 | 31.62625 | 124.06356 | 35155 ft | 551 kts | 75° |
| 2026-05-04 15:41 | 31.64488 | 124.15093 | 35165 ft | 553 kts | 76° |
| 2026-05-04 15:42 | 31.66341 | 124.23874 | 35140 ft | 555 kts | 76° |
| 2026-05-04 15:42 | 31.68263 | 124.32651 | 35185 ft | 556 kts | 75° |
| 2026-05-04 15:43 | 31.70214 | 124.41433 | 35171 ft | 555 kts | 75° |
| 2026-05-04 15:43 | 31.72155 | 124.50204 | 35147 ft | 554 kts | 75° |
| 2026-05-04 15:44 | 31.74079 | 124.58958 | 35168 ft | 552 kts | 76° |
| 2026-05-04 15:44 | 31.75989 | 124.67689 | 35171 ft | 551 kts | 76° |
| 2026-05-04 15:45 | 31.77889 | 124.76407 | 35166 ft | 550 kts | 76° |
| 2026-05-04 15:45 | 31.79782 | 124.85115 | 35177 ft | 549 kts | 76° |
| 2026-05-04 15:46 | 31.81659 | 124.93804 | 35176 ft | 549 kts | 77° |
| 2026-05-04 15:46 | 31.82405 | 125.02669 | 35164 ft | 543 kts | 96° |
| 2026-05-04 15:47 | 31.81302 | 125.11364 | 35193 ft | 536 kts | 107° |
| 2026-05-04 15:47 | 31.79785 | 125.19959 | 35181 ft | 539 kts | 107° |
| 2026-05-04 15:48 | 31.78320 | 125.28622 | 35164 ft | 542 kts | 106° |
| 2026-05-04 15:48 | 31.76178 | 125.41709 | 35181 ft | 545 kts | 106° |
| 2026-05-04 15:49 | 31.74732 | 125.50478 | 35196 ft | 547 kts | 107° |
| 2026-05-04 15:49 | 31.73275 | 125.59263 | 35184 ft | 548 kts | 106° |
| 2026-05-04 15:50 | 31.72810 | 125.68268 | 35189 ft | 558 kts | 88° |
| 2026-05-04 15:50 | 31.73325 | 125.72785 | 35170 ft | 560 kts | 77° |
| 2026-05-04 15:50 | 31.74304 | 125.77212 | 35176 ft | 559 kts | 75° |
| 2026-05-04 15:51 | 31.76395 | 125.85995 | 35175 ft | 557 kts | 75° |
| 2026-05-04 15:51 | 31.78333 | 125.94801 | 35179 ft | 556 kts | 76° |
| 2026-05-04 15:52 | 31.80239 | 126.03593 | 35221 ft | 555 kts | 76° |
| 2026-05-04 15:52 | 31.82161 | 126.12377 | 35182 ft | 554 kts | 76° |
| 2026-05-04 15:53 | 31.84074 | 126.21152 | 35178 ft | 553 kts | 76° |
| 2026-05-04 15:53 | 31.85975 | 126.29918 | 35169 ft | 552 kts | 76° |
| 2026-05-04 15:54 | 31.87862 | 126.38657 | 35175 ft | 552 kts | 76° |
| 2026-05-04 15:54 | 31.89748 | 126.47421 | 35201 ft | 552 kts | 76° |
| 2026-05-04 15:55 | 31.91657 | 126.56170 | 35174 ft | 553 kts | 76° |
| 2026-05-04 15:55 | 31.93603 | 126.64934 | 35183 ft | 553 kts | 76° |
| 2026-05-04 15:56 | 31.95529 | 126.73655 | 35182 ft | 554 kts | 76° |
| 2026-05-04 15:56 | 31.97470 | 126.82509 | 35170 ft | 555 kts | 76° |
| 2026-05-04 15:57 | 31.99382 | 126.91272 | 35179 ft | 557 kts | 76° |
| 2026-05-04 15:57 | 32.01305 | 127.00117 | 35162 ft | 557 kts | 77° |
| 2026-05-04 15:58 | 32.03224 | 127.08965 | 35171 ft | 558 kts | 77° |
| 2026-05-04 15:58 | 32.05798 | 127.17578 | 35186 ft | 557 kts | 64° |
| 2026-05-04 15:59 | 32.09088 | 127.25852 | 35154 ft | 558 kts | 64° |
| 2026-05-04 15:59 | 32.12298 | 127.34185 | 35168 ft | 558 kts | 65° |
| 2026-05-04 16:00 | 32.15432 | 127.42554 | 35169 ft | 558 kts | 65° |
| 2026-05-04 16:00 | 32.18562 | 127.50927 | 35207 ft | 558 kts | 65° |
| 2026-05-04 16:01 | 32.21697 | 127.59322 | 35170 ft | 559 kts | 65° |
| 2026-05-04 16:01 | 32.24824 | 127.67711 | 35170 ft | 558 kts | 65° |
| 2026-05-04 16:02 | 32.27946 | 127.76107 | 35156 ft | 558 kts | 65° |
| 2026-05-04 16:03 | 32.32614 | 127.88703 | 35170 ft | 558 kts | 66° |
| 2026-05-04 16:03 | 32.35719 | 127.97109 | 35141 ft | 558 kts | 66° |
| 2026-05-04 16:04 | 32.38818 | 128.05518 | 35162 ft | 557 kts | 66° |
| 2026-05-04 16:04 | 32.42932 | 128.16713 | 35164 ft | 557 kts | 66° |
| 2026-05-04 16:05 | 32.46016 | 128.25132 | 35159 ft | 557 kts | 66° |
| 2026-05-04 16:06 | 32.50631 | 128.37766 | 35165 ft | 557 kts | 66° |
| 2026-05-04 16:07 | 32.56782 | 128.54681 | 35164 ft | 559 kts | 66° |
| 2026-05-04 16:08 | 32.62915 | 128.71636 | 35176 ft | 559 kts | 66° |
| 2026-05-04 16:08 | 32.67808 | 128.84177 | 35147 ft | 558 kts | 55° |
| 2026-05-04 16:09 | 32.72462 | 128.91478 | 35138 ft | 553 kts | 47° |
| 2026-05-04 16:10 | 32.82066 | 129.05798 | 35156 ft | 554 kts | 48° |
| 2026-05-04 16:11 | 32.91524 | 129.20299 | 35149 ft | 555 kts | 49° |
| 2026-05-04 16:12 | 33.05699 | 129.42135 | 35141 ft | 556 kts | 49° |
| 2026-05-04 16:13 | 33.15143 | 129.56746 | 35167 ft | 557 kts | 49° |
| 2026-05-04 16:14 | 33.24594 | 129.71430 | 35137 ft | 557 kts | 49° |
| 2026-05-04 16:16 | 33.36382 | 129.89825 | 35124 ft | 558 kts | 49° |
| 2026-05-04 16:17 | 33.48150 | 130.08283 | 35116 ft | 557 kts | 50° |
| 2026-05-04 16:18 | 33.57531 | 130.23063 | 35130 ft | 557 kts | 50° |
| 2026-05-04 16:19 | 33.69342 | 130.41376 | 35115 ft | 553 kts | 42° |
| 2026-05-04 16:20 | 33.82992 | 130.57583 | 35127 ft | 553 kts | 40° |
| 2026-05-04 16:22 | 33.96567 | 130.74060 | 35119 ft | 556 kts | 40° |
| 2026-05-04 16:23 | 34.12886 | 130.93982 | 35118 ft | 557 kts | 40° |
| 2026-05-04 16:25 | 34.28137 | 131.15112 | 35112 ft | 558 kts | 49° |
| 2026-05-04 16:26 | 34.44909 | 131.40734 | 35142 ft | 553 kts | 48° |
| 2026-05-04 16:28 | 34.56903 | 131.58987 | 35122 ft | 555 kts | 48° |
| 2026-05-04 16:29 | 34.73730 | 131.84746 | 35117 ft | 557 kts | 48° |
| 2026-05-04 16:31 | 34.85758 | 132.03291 | 35115 ft | 560 kts | 49° |
| 2026-05-04 16:32 | 35.00151 | 132.25710 | 35111 ft | 560 kts | 48° |
| 2026-05-04 16:33 | 35.09728 | 132.40695 | 35124 ft | 561 kts | 49° |
| 2026-05-04 16:34 | 35.16909 | 132.51977 | 35129 ft | 561 kts | 49° |
| 2026-05-04 16:35 | 35.31245 | 132.74608 | 35135 ft | 560 kts | 49° |
| 2026-05-04 16:36 | 35.38394 | 132.85949 | 35134 ft | 561 kts | 49° |
| 2026-05-04 16:37 | 35.45526 | 132.97301 | 35126 ft | 560 kts | 49° |
| 2026-05-04 16:38 | 35.54881 | 133.12554 | 35123 ft | 561 kts | 53° |
| 2026-05-04 16:39 | 35.65203 | 133.32912 | 35121 ft | 560 kts | 55° |
| 2026-05-04 16:40 | 35.73493 | 133.49126 | 35106 ft | 560 kts | 55° |
| 2026-05-04 16:41 | 35.83844 | 133.69453 | 35100 ft | 561 kts | 55° |
| 2026-05-04 16:43 | 35.94194 | 133.89915 | 35120 ft | 564 kts | 55° |
| 2026-05-04 16:43 | 36.00385 | 134.02225 | 35116 ft | 565 kts | 55° |
| 2026-05-04 16:45 | 36.12792 | 134.27081 | 35118 ft | 567 kts | 56° |
| 2026-05-04 16:46 | 36.23121 | 134.47889 | 35111 ft | 567 kts | 54° |
| 2026-05-04 16:47 | 36.27138 | 134.54194 | 35111 ft | 557 kts | 40° |
| 2026-05-04 16:47 | 36.32615 | 134.60947 | 35109 ft | 555 kts | 38° |
| 2026-05-04 16:48 | 36.43580 | 134.74482 | 35101 ft | 556 kts | 39° |
| 2026-05-04 16:49 | 36.54421 | 134.88199 | 35107 ft | 556 kts | 39° |
| 2026-05-04 16:50 | 36.65232 | 135.01921 | 35105 ft | 555 kts | 39° |
| 2026-05-04 16:51 | 36.73319 | 135.12217 | 35107 ft | 553 kts | 39° |
| 2026-05-04 16:52 | 36.84060 | 135.25945 | 35109 ft | 552 kts | 39° |
| 2026-05-04 16:53 | 36.92103 | 135.36263 | 35083 ft | 552 kts | 39° |
| 2026-05-04 16:54 | 37.02803 | 135.50043 | 35091 ft | 552 kts | 39° |
| 2026-05-04 16:55 | 37.18769 | 135.70715 | 35084 ft | 549 kts | 39° |
| 2026-05-04 16:56 | 37.32010 | 135.87961 | 35095 ft | 548 kts | 39° |
| 2026-05-04 16:57 | 37.39940 | 135.98333 | 35077 ft | 549 kts | 40° |
| 2026-05-04 16:58 | 37.50525 | 136.12234 | 35069 ft | 550 kts | 40° |
| 2026-05-04 17:00 | 37.66307 | 136.33127 | 35070 ft | 547 kts | 40° |
| 2026-05-04 17:01 | 37.79381 | 136.50537 | 35071 ft | 546 kts | 40° |
| 2026-05-04 17:02 | 37.89816 | 136.64502 | 35063 ft | 546 kts | 40° |
| 2026-05-04 17:03 | 37.97641 | 136.75014 | 35083 ft | 547 kts | 41° |
| 2026-05-04 17:03 | 38.05461 | 136.85556 | 35049 ft | 547 kts | 41° |
| 2026-05-04 17:04 | 38.15825 | 136.99582 | 35045 ft | 546 kts | 41° |
| 2026-05-04 17:05 | 38.26197 | 137.13681 | 35051 ft | 545 kts | 41° |
| 2026-05-04 17:06 | 38.33949 | 137.24260 | 35041 ft | 544 kts | 41° |
| 2026-05-04 17:07 | 38.40815 | 137.33660 | 35035 ft | 544 kts | 41° |
| 2026-05-04 17:07 | 38.46830 | 137.41917 | 35031 ft | 544 kts | 41° |
| 2026-05-04 17:08 | 38.54538 | 137.52530 | 35033 ft | 544 kts | 42° |
| 2026-05-04 17:09 | 38.59683 | 137.59634 | 35030 ft | 545 kts | 42° |
| 2026-05-04 17:09 | 38.64835 | 137.66764 | 35031 ft | 546 kts | 42° |
| 2026-05-04 17:10 | 38.77735 | 137.84692 | 35025 ft | 548 kts | 42° |
| 2026-05-04 17:11 | 38.82899 | 137.91897 | 35024 ft | 549 kts | 43° |
| 2026-05-04 17:12 | 38.90634 | 138.02721 | 35011 ft | 549 kts | 43° |
| 2026-05-04 17:13 | 39.03520 | 138.20812 | 35020 ft | 549 kts | 43° |
| 2026-05-04 17:14 | 39.13791 | 138.35302 | 34998 ft | 546 kts | 43° |
| 2026-05-04 17:15 | 39.21435 | 138.46136 | 35009 ft | 544 kts | 43° |
| 2026-05-04 17:16 | 39.31578 | 138.60566 | 34992 ft | 542 kts | 44° |
| 2026-05-04 17:17 | 39.41689 | 138.75015 | 34996 ft | 543 kts | 44° |
| 2026-05-04 17:18 | 39.51797 | 138.89530 | 34990 ft | 547 kts | 44° |
| 2026-05-04 17:19 | 39.61996 | 139.04247 | 34987 ft | 549 kts | 44° |
| 2026-05-04 17:20 | 39.72180 | 139.19013 | 34966 ft | 548 kts | 45° |
| 2026-05-04 17:20 | 39.79777 | 139.30076 | 34971 ft | 546 kts | 45° |
| 2026-05-04 17:21 | 39.89869 | 139.44829 | 34968 ft | 545 kts | 45° |
| 2026-05-04 17:22 | 39.94901 | 139.52209 | 34970 ft | 545 kts | 45° |
| 2026-05-04 17:23 | 40.04969 | 139.67030 | 34966 ft | 546 kts | 45° |
| 2026-05-04 17:24 | 40.12515 | 139.78188 | 34963 ft | 547 kts | 46° |
| 2026-05-04 17:25 | 40.22585 | 139.93140 | 34958 ft | 547 kts | 46° |
| 2026-05-04 17:26 | 40.32629 | 140.08126 | 34960 ft | 548 kts | 46° |
| 2026-05-04 17:27 | 40.45189 | 140.26972 | 34940 ft | 549 kts | 46° |
| 2026-05-04 17:28 | 40.55200 | 140.42076 | 34571 ft | 555 kts | 47° |
| 2026-05-04 17:29 | 40.62766 | 140.53550 | 33141 ft | 553 kts | 47° |
| 2026-05-04 17:29 | 40.70328 | 140.64982 | 31358 ft | 550 kts | 44° |
| 2026-05-04 17:30 | 40.79540 | 140.73481 | 29741 ft | 532 kts | 18° |
| 2026-05-04 17:31 | 40.86434 | 140.76841 | 28487 ft | 525 kts | 15° |
| 2026-05-04 17:31 | 40.96639 | 140.81731 | 26718 ft | 513 kts | 17° |
| 2026-05-04 17:32 | 41.02132 | 140.84448 | 25745 ft | 501 kts | 17° |
| 2026-05-04 17:33 | 41.12782 | 140.89757 | 23894 ft | 478 kts | 17° |
| 2026-05-04 17:33 | 41.14839 | 140.90782 | 23534 ft | 474 kts | 17° |
| 2026-05-04 17:34 | 41.23913 | 140.94968 | 21616 ft | 450 kts | 18° |
| 2026-05-04 17:34 | 41.26749 | 140.96684 | 21052 ft | 443 kts | 20° |
| 2026-05-04 17:35 | 41.35258 | 141.01156 | 19303 ft | 431 kts | 14° |
| 2026-05-04 17:35 | 41.40857 | 141.03750 | 18193 ft | 422 kts | 14° |
| 2026-05-04 17:35 | 41.43603 | 141.05061 | 17571 ft | 418 kts | 15° |
| 2026-05-04 17:36 | 41.46320 | 141.06380 | 16953 ft | 414 kts | 15° |
| 2026-05-04 17:36 | 41.49013 | 141.07702 | 16337 ft | 410 kts | 16° |
| 2026-05-04 17:36 | 41.51671 | 141.09014 | 15718 ft | 405 kts | 16° |
| 2026-05-04 17:36 | 41.54301 | 141.10316 | 15126 ft | 400 kts | 16° |
| 2026-05-04 17:37 | 41.56896 | 141.11601 | 14587 ft | 394 kts | 16° |
| 2026-05-04 17:37 | 41.59452 | 141.12867 | 14100 ft | 388 kts | 16° |
| 2026-05-04 17:37 | 41.61969 | 141.14114 | 13636 ft | 386 kts | 15° |
| 2026-05-04 17:37 | 41.64482 | 141.15357 | 13246 ft | 384 kts | 15° |
| 2026-05-04 17:38 | 41.66978 | 141.16593 | 12844 ft | 382 kts | 16° |
| 2026-05-04 17:38 | 41.69448 | 141.17823 | 12429 ft | 376 kts | 16° |
| 2026-05-04 17:38 | 41.71854 | 141.19033 | 12083 ft | 371 kts | 16° |
| 2026-05-04 17:38 | 41.74242 | 141.20242 | 11954 ft | 355 kts | 16° |
| 2026-05-04 17:39 | 41.78611 | 141.22458 | 11649 ft | 325 kts | 16° |
| 2026-05-04 17:39 | 41.80688 | 141.23508 | 11523 ft | 312 kts | 15° |
| 2026-05-04 17:39 | 41.82684 | 141.24512 | 11403 ft | 301 kts | 16° |
| 2026-05-04 17:40 | 41.84591 | 141.25528 | 11279 ft | 292 kts | 20° |
| 2026-05-04 17:40 | 41.86281 | 141.27023 | 11145 ft | 288 kts | 29° |
| 2026-05-04 17:40 | 41.87858 | 141.28611 | 11003 ft | 279 kts | 30° |
| 2026-05-04 17:40 | 41.89386 | 141.30155 | 10866 ft | 270 kts | 30° |
| 2026-05-04 17:41 | 41.90861 | 141.31673 | 10734 ft | 265 kts | 29° |
| 2026-05-04 17:41 | 41.92317 | 141.33187 | 10485 ft | 266 kts | 31° |
| 2026-05-04 17:41 | 41.93776 | 141.34698 | 10245 ft | 262 kts | 30° |
| 2026-05-04 17:41 | 41.95204 | 141.36189 | 10001 ft | 259 kts | 30° |
| 2026-05-04 17:42 | 41.96618 | 141.37666 | 9757 ft | 256 kts | 30° |
| 2026-05-04 17:42 | 41.98012 | 141.39121 | 9480 ft | 253 kts | 31° |
| 2026-05-04 17:42 | 41.99399 | 141.40570 | 9212 ft | 252 kts | 31° |
| 2026-05-04 17:42 | 42.00776 | 141.42011 | 8936 ft | 250 kts | 31° |
| 2026-05-04 17:43 | 42.02137 | 141.43437 | 8692 ft | 247 kts | 31° |
| 2026-05-04 17:43 | 42.03487 | 141.44852 | 8424 ft | 245 kts | 31° |
| 2026-05-04 17:43 | 42.04816 | 141.46247 | 8274 ft | 239 kts | 31° |
| 2026-05-04 17:43 | 42.06116 | 141.47611 | 8130 ft | 237 kts | 31° |
| 2026-05-04 17:44 | 42.07412 | 141.48970 | 8014 ft | 237 kts | 31° |
| 2026-05-04 17:44 | 42.08717 | 141.50338 | 7879 ft | 238 kts | 31° |
| 2026-05-04 17:44 | 42.10030 | 141.51714 | 7744 ft | 240 kts | 31° |
| 2026-05-04 17:44 | 42.11355 | 141.53105 | 7620 ft | 242 kts | 31° |
| 2026-05-04 17:45 | 42.12686 | 141.54504 | 7433 ft | 244 kts | 31° |
| 2026-05-04 17:45 | 42.14031 | 141.55918 | 7235 ft | 245 kts | 31° |
| 2026-05-04 17:45 | 42.15366 | 141.57325 | 7053 ft | 241 kts | 31° |
| 2026-05-04 17:45 | 42.16670 | 141.58701 | 6850 ft | 236 kts | 31° |
| 2026-05-04 17:46 | 42.17953 | 141.60056 | 6642 ft | 232 kts | 31° |
| 2026-05-04 17:46 | 42.19209 | 141.61383 | 6434 ft | 227 kts | 31° |
| 2026-05-04 17:46 | 42.20450 | 141.62692 | 6232 ft | 226 kts | 31° |
| 2026-05-04 17:46 | 42.21689 | 141.63999 | 6023 ft | 225 kts | 31° |
| 2026-05-04 17:47 | 42.22917 | 141.65295 | 5814 ft | 224 kts | 31° |
| 2026-05-04 17:47 | 42.24145 | 141.66592 | 5602 ft | 224 kts | 31° |
| 2026-05-04 17:47 | 42.25371 | 141.67888 | 5387 ft | 223 kts | 31° |
| 2026-05-04 17:47 | 42.26590 | 141.69177 | 5179 ft | 223 kts | 31° |
| 2026-05-04 17:48 | 42.27815 | 141.70472 | 4976 ft | 223 kts | 31° |
| 2026-05-04 17:48 | 42.29037 | 141.71765 | 4772 ft | 223 kts | 31° |
| 2026-05-04 17:48 | 42.30259 | 141.73060 | 4562 ft | 223 kts | 31° |
| 2026-05-04 17:48 | 42.31481 | 141.74355 | 4349 ft | 223 kts | 31° |
| 2026-05-04 17:49 | 42.32702 | 141.75649 | 4175 ft | 223 kts | 31° |
| 2026-05-04 17:49 | 42.34009 | 141.76674 | 4078 ft | 213 kts | 9° |
| 2026-05-04 17:49 | 42.35447 | 141.76917 | 4068 ft | 208 kts | 356° |
| 2026-05-04 17:49 | 42.36874 | 141.76695 | 4077 ft | 207 kts | 351° |
| 2026-05-04 17:50 | 42.38307 | 141.76415 | 4079 ft | 209 kts | 351° |
| 2026-05-04 17:50 | 42.39753 | 141.76136 | 4074 ft | 209 kts | 352° |
| 2026-05-04 17:50 | 42.41187 | 141.75863 | 4072 ft | 208 kts | 352° |
| 2026-05-04 17:50 | 42.42621 | 141.75594 | 4066 ft | 207 kts | 352° |
| 2026-05-04 17:51 | 42.44033 | 141.75332 | 4045 ft | 200 kts | 351° |
| 2026-05-04 17:51 | 42.45349 | 141.75091 | 4060 ft | 187 kts | 352° |
| 2026-05-04 17:51 | 42.46594 | 141.74875 | 4061 ft | 174 kts | 352° |
| 2026-05-04 17:51 | 42.47779 | 141.74668 | 4075 ft | 167 kts | 352° |
| 2026-05-04 17:52 | 42.48902 | 141.74471 | 4086 ft | 164 kts | 352° |
| 2026-05-04 17:52 | 42.50035 | 141.74271 | 4091 ft | 164 kts | 352° |
| 2026-05-04 17:52 | 42.51169 | 141.74070 | 4076 ft | 164 kts | 352° |
| 2026-05-04 17:52 | 42.52303 | 141.73870 | 4068 ft | 164 kts | 352° |
| 2026-05-04 17:53 | 42.53434 | 141.73670 | 4064 ft | 164 kts | 352° |
| 2026-05-04 17:53 | 42.54580 | 141.73467 | 4064 ft | 164 kts | 352° |
| 2026-05-04 17:53 | 42.55702 | 141.73269 | 4063 ft | 164 kts | 352° |
| 2026-05-04 17:53 | 42.56815 | 141.73072 | 4012 ft | 154 kts | 352° |
| 2026-05-04 17:54 | 42.57860 | 141.72887 | 3810 ft | 149 kts | 352° |
| 2026-05-04 17:54 | 42.58874 | 141.72708 | 3619 ft | 146 kts | 352° |
| 2026-05-04 17:54 | 42.59883 | 141.72530 | 3418 ft | 147 kts | 352° |
| 2026-05-04 17:54 | 42.60889 | 141.72352 | 3234 ft | 148 kts | 352° |
| 2026-05-04 17:55 | 42.61924 | 141.72168 | 3019 ft | 149 kts | 352° |
| 2026-05-04 17:55 | 42.62954 | 141.71987 | 2810 ft | 150 kts | 352° |
| 2026-05-04 17:55 | 42.63984 | 141.71805 | 2592 ft | 148 kts | 352° |
| 2026-05-04 17:55 | 42.64989 | 141.71628 | 2384 ft | 147 kts | 351° |
| 2026-05-04 17:56 | 42.66010 | 141.71447 | 2174 ft | 146 kts | 351° |
| 2026-05-04 17:56 | 42.67016 | 141.71269 | 1957 ft | 144 kts | 351° |
| 2026-05-04 17:56 | 42.67988 | 141.71098 | 1764 ft | 138 kts | 351° |
| 2026-05-04 17:56 | 42.68904 | 141.70936 | 1575 ft | 131 kts | 350° |
| 2026-05-04 17:57 | 42.69789 | 141.70780 | 1396 ft | 128 kts | 349° |
| 2026-05-04 17:57 | 42.70681 | 141.70621 | 1247 ft | 125 kts | 350° |
| 2026-05-04 17:57 | 42.71543 | 141.70468 | 1031 ft | 124 kts | 351° |
| 2026-05-04 17:57 | 42.72400 | 141.70317 | 848 ft | 126 kts | 352° |
| 2026-05-04 17:58 | 42.73278 | 141.70161 | 705 ft | 128 kts | 349° |
| 2026-05-04 17:58 | 42.74173 | 141.70003 | 499 ft | 131 kts | 351° |
| 2026-05-04 17:58 | 42.75074 | 141.69833 | 327 ft | 133 kts | 351° |
| 2026-05-04 17:58 | 42.75991 | 141.69677 | 174 ft | 131 kts | 351° |
| 2026-05-04 17:59 | 42.76869 | 141.69528 | 73 ft | 122 kts | 351° |
| 2026-05-04 17:59 | 42.77574 | 141.69403 | 72 ft | 80 kts | 353° |
| 2026-05-04 17:59 | 42.78181 | 141.69281 | 71 ft | 28 kts | 340° |
| 2026-05-04 18:00 | 42.78344 | 141.69150 | 76 ft | 27 kts | 323° |
| 2026-05-04 18:00 | 42.78443 | 141.69039 | 81 ft | 11 kts | 301° |
| 2026-05-04 18:00 | 42.78446 | 141.68941 | 69 ft | 10 kts | 265° |
| 2026-05-04 18:00 | 42.78439 | 141.68845 | 78 ft | 10 kts | 264° |
| 2026-05-04 18:01 | 42.78429 | 141.68752 | 78 ft | 10 kts | 262° |
| 2026-05-04 18:01 | 42.78419 | 141.68662 | 73 ft | 10 kts | 262° |
| 2026-05-04 18:01 | 42.78412 | 141.68574 | 75 ft | 9 kts | 270° |
| 2026-05-04 18:02 | 42.78459 | 141.68418 | 72 ft | 9 kts | 306° |
| 2026-05-04 18:02 | 42.78497 | 141.68355 | 74 ft | 9 kts | 313° |
| 2026-05-04 18:02 | 42.78534 | 141.68292 | 71 ft | 8 kts | 306° |
| 2026-05-04 18:02 | 42.78566 | 141.68230 | 75 ft | 7 kts | 304° |
| 2026-05-04 18:03 | 42.78575 | 141.68212 | 78 ft | 0 kts | 305° |